Time;durP1;ratioP1;P1;durP2;ratioP2;P2;SDS_P1;SDS_P2;PMS_P1;PMS_P2;Temp;Humidity;BMP_temperature;BMP_pressure;BME280_temperature;BME280_humidity;BME280_pressure;Samples;Min_cycle;Max_cycle;Signal;HPM_P1;HPM_P2
2022/04/20 00:00:34;;;;;;;6.05;3.25;;;;;;;7.52;60.23;96113.22;4974816;28;20440;-68
2022/04/20 00:03:00;;;;;;;7.10;3.35;;;;;;;7.52;59.86;96105.81;4989806;28;20065;-64
2022/04/20 00:05:25;;;;;;;6.28;3.58;;;;;;;7.50;59.89;96110.84;4984817;28;20377;-66
2022/04/20 00:07:51;;;;;;;8.02;3.45;;;;;;;7.34;60.79;96108.22;4978954;28;20085;-64
2022/04/20 00:10:16;;;;;;;4.25;3.05;;;;;;;7.28;60.40;96112.38;4978725;28;20039;-64
2022/04/20 00:12:41;;;;;;;5.40;3.58;;;;;;;7.13;61.01;96105.88;4978901;28;20058;-66
2022/04/20 00:15:08;;;;;;;6.93;3.80;;;;;;;7.06;60.94;96101.06;4986062;28;20500;-68
2022/04/20 00:17:33;;;;;;;5.30;3.22;;;;;;;7.06;61.11;96100.28;4978028;28;20042;-66
2022/04/20 00:19:59;;;;;;;7.68;4.20;;;;;;;6.95;61.92;96110.16;4978560;28;20106;-65
2022/04/20 00:22:24;;;;;;;4.85;3.85;;;;;;;6.96;62.17;96106.28;4978399;28;20034;-66
2022/04/20 00:24:49;;;;;;;5.70;4.22;;;;;;;6.97;61.86;96103.22;4977291;28;20392;-66
2022/04/20 00:27:15;;;;;;;5.65;3.75;;;;;;;6.95;62.18;96110.94;4977513;28;20126;-66
2022/04/20 00:29:40;;;;;;;7.30;3.45;;;;;;;7.05;61.95;96106.88;4977989;28;20038;-67
2022/04/20 00:32:07;;;;;;;8.07;3.50;;;;;;;7.02;62.70;96107.56;4976496;28;20506;-67
2022/04/20 00:34:32;;;;;;;8.85;4.05;;;;;;;6.96;62.55;96109.00;4978023;28;20436;-67
2022/04/20 00:36:58;;;;;;;5.45;3.88;;;;;;;6.85;62.78;96117.72;4976451;28;20103;-67
2022/04/20 00:39:24;;;;;;;7.32;4.25;;;;;;;6.77;63.41;96117.94;4977286;28;20400;-66
2022/04/20 00:41:51;;;;;;;6.82;3.75;;;;;;;6.73;63.81;96117.06;4960966;28;20031;-66
2022/04/20 00:44:16;;;;;;;8.57;4.22;;;;;;;6.67;64.33;96117.34;4979288;28;20571;-64
2022/04/20 00:46:46;;;;;;;5.70;3.80;;;;;;;6.63;64.59;96121.16;4976825;28;20113;-69
2022/04/20 00:49:13;;;;;;;8.23;3.85;;;;;;;6.50;64.92;96123.97;4978694;28;20043;-67
2022/04/20 00:51:52;;;;;;;6.18;4.40;;;;;;;6.42;65.32;96114.06;4978754;28;20054;-66
2022/04/20 00:54:18;;;;;;;7.80;3.97;;;;;;;6.38;65.81;96120.59;4978421;28;20023;-65
2022/04/20 00:56:44;;;;;;;5.80;3.67;;;;;;;6.47;65.78;96132.84;4977562;28;20035;-65
2022/04/20 00:59:10;;;;;;;6.68;4.15;;;;;;;6.47;65.71;96113.78;4976614;28;20058;-68
2022/04/20 01:01:35;;;;;;;6.95;4.28;;;;;;;6.50;65.42;96117.75;4977791;28;20093;-65
2022/04/20 01:04:01;;;;;;;7.60;4.78;;;;;;;6.43;65.53;96109.44;4976180;28;20039;-67
2022/04/20 01:06:26;;;;;;;8.68;4.15;;;;;;;6.18;66.68;96112.34;4977347;28;20041;-67
2022/04/20 01:08:52;;;;;;;6.88;4.57;;;;;;;6.15;66.48;96102.16;4977787;28;20094;-66
2022/04/20 01:11:17;;;;;;;6.68;4.00;;;;;;;6.25;66.99;96114.47;4977571;28;20045;-67
2022/04/20 01:13:43;;;;;;;7.20;4.68;;;;;;;6.19;66.30;96111.19;4978002;28;20441;-66
2022/04/20 01:16:08;;;;;;;8.50;4.50;;;;;;;6.15;66.44;96113.03;4976158;28;20089;-66
2022/04/20 01:18:42;;;;;;;6.53;4.60;;;;;;;6.02;66.85;96106.13;4976055;28;20062;-66
2022/04/20 01:21:07;;;;;;;6.35;4.00;;;;;;;6.05;67.05;96106.22;4975324;28;20066;-66
2022/04/20 01:23:33;;;;;;;6.95;4.72;;;;;;;5.97;67.52;96109.91;4975359;28;20066;-66
2022/04/20 01:25:58;;;;;;;9.43;4.38;;;;;;;5.97;67.18;96103.69;4974950;28;20031;-66
2022/04/20 01:28:23;;;;;;;7.38;4.38;;;;;;;5.98;67.36;96111.50;4974307;28;20090;-67
2022/04/20 01:30:49;;;;;;;5.35;3.88;;;;;;;5.97;67.28;96109.91;4974669;28;20106;-66
2022/04/20 01:33:14;;;;;;;7.07;4.53;;;;;;;5.84;67.42;96103.72;4974463;28;20490;-67
2022/04/20 01:35:39;;;;;;;6.85;4.38;;;;;;;5.72;68.17;96109.25;4979553;28;20034;-66
2022/04/20 01:38:05;;;;;;;9.50;4.70;;;;;;;5.68;68.52;96106.44;4981085;28;20035;-67
2022/04/20 01:40:31;;;;;;;6.18;4.30;;;;;;;5.59;68.66;96115.91;4982308;28;20038;-67
2022/04/20 01:42:57;;;;;;;8.20;4.82;;;;;;;5.57;68.75;96110.81;4987495;28;20474;-65
2022/04/20 01:45:22;;;;;;;7.32;4.25;;;;;;;5.57;68.81;96116.25;4973676;28;20114;-65
2022/04/20 01:47:48;;;;;;;8.52;5.00;;;;;;;5.53;68.70;96110.72;4977418;28;20027;-65
2022/04/20 01:50:13;;;;;;;11.00;5.28;;;;;;;5.60;68.23;96112.84;4976428;28;20038;-67
2022/04/20 01:52:38;;;;;;;7.63;4.22;;;;;;;5.68;67.98;96111.88;4976340;28;20042;-65
2022/04/20 01:55:04;;;;;;;11.68;4.80;;;;;;;5.69;67.36;96118.06;4972875;28;20030;-66
2022/04/20 01:57:30;;;;;;;6.40;4.47;;;;;;;5.57;67.94;96121.66;4972618;28;20045;-65
2022/04/20 01:59:55;;;;;;;7.70;4.55;;;;;;;5.48;68.05;96123.75;4974387;28;20106;-66
2022/04/20 02:02:37;;;;;;;7.78;4.68;;;;;;;5.45;67.95;96125.22;4969012;28;20058;-66
2022/04/20 02:05:08;;;;;;;8.07;4.38;;;;;;;5.41;68.41;96126.28;4968228;28;20038;-64
2022/04/20 02:07:34;;;;;;;8.77;4.65;;;;;;;5.36;68.32;96119.94;4972646;28;20042;-66
2022/04/20 02:10:00;;;;;;;9.90;5.22;;;;;;;5.31;68.05;96122.13;4971538;28;20031;-66
2022/04/20 02:12:26;;;;;;;9.40;4.95;;;;;;;5.35;67.75;96118.38;4972630;28;20037;-65
2022/04/20 02:14:52;;;;;;;7.53;5.15;;;;;;;5.43;67.63;96122.06;4972451;28;20117;-66
2022/04/20 02:17:17;;;;;;;7.13;4.13;;;;;;;5.50;66.85;96116.06;4973259;28;20030;-67
2022/04/20 02:19:43;;;;;;;6.05;4.30;;;;;;;5.42;66.44;96114.28;4973082;28;20842;-66
2022/04/20 02:22:08;;;;;;;8.02;4.68;;;;;;;5.37;66.17;96109.91;4974367;28;20034;-66
2022/04/20 02:24:33;;;;;;;7.80;4.43;;;;;;;5.32;66.75;96121.00;4972413;28;20058;-66
2022/04/20 02:26:59;;;;;;;9.10;4.28;;;;;;;5.17;66.50;96114.41;4971066;28;20109;-64
2022/04/20 02:29:24;;;;;;;6.20;4.10;;;;;;;5.17;65.71;96098.88;4971605;28;20420;-66
2022/04/20 02:31:49;;;;;;;6.70;4.30;;;;;;;5.19;65.15;96103.19;4974622;28;20034;-66
2022/04/20 02:34:15;;;;;;;7.00;4.20;;;;;;;5.17;65.08;96095.41;4975129;28;20134;-66
2022/04/20 02:36:41;;;;;;;9.65;4.30;;;;;;;5.20;64.92;96099.34;4974552;28;20042;-67
2022/04/20 02:39:06;;;;;;;6.97;4.10;;;;;;;5.21;64.11;96092.78;4980355;28;20109;-65
2022/04/20 02:41:36;;;;;;;5.85;3.88;;;;;;;5.27;63.52;96103.03;4985967;28;20038;-66
2022/04/20 02:44:03;;;;;;;8.32;4.25;;;;;;;5.16;63.14;96105.44;4968858;28;20027;-66
2022/04/20 02:46:28;;;;;;;6.40;3.90;;;;;;;5.10;63.67;96100.63;4971712;28;20035;-65
2022/04/20 02:48:54;;;;;;;9.57;4.25;;;;;;;5.03;63.52;96097.72;4973452;28;20157;-66
2022/04/20 02:51:19;;;;;;;7.63;4.35;;;;;;;5.04;63.20;96104.72;4973864;28;20848;-66
2022/04/20 02:53:45;;;;;;;7.63;4.43;;;;;;;4.97;63.15;96100.66;4973837;28;20062;-65
2022/04/20 02:56:10;;;;;;;9.10;3.80;;;;;;;4.87;64.06;96097.66;4971609;28;20031;-65
2022/04/20 02:58:36;;;;;;;7.88;3.92;;;;;;;4.86;63.40;96098.78;4972212;28;20057;-64
2022/04/20 03:01:01;;;;;;;6.30;4.00;;;;;;;5.04;62.12;96102.00;4974288;28;20111;-65
2022/04/20 03:03:26;;;;;;;5.15;3.78;;;;;;;4.91;62.36;96106.66;4977527;28;20381;-66
2022/04/20 03:05:53;;;;;;;5.53;4.07;;;;;;;4.88;62.96;96110.06;4984244;28;20101;-65
2022/04/20 03:08:18;;;;;;;5.78;3.88;;;;;;;4.92;61.33;96109.03;4983031;28;20042;-66
2022/04/20 03:10:44;;;;;;;6.60;3.55;;;;;;;4.94;61.34;96106.00;4980785;28;20050;-65
2022/04/20 03:13:10;;;;;;;6.85;3.80;;;;;;;4.91;61.46;96107.44;4973936;28;20019;-66
2022/04/20 03:15:35;;;;;;;5.72;3.58;;;;;;;4.92;61.04;96106.34;4974643;28;20034;-66
2022/04/20 03:18:01;;;;;;;5.38;3.58;;;;;;;4.86;61.59;96107.72;4983112;28;20027;-65
2022/04/20 03:20:26;;;;;;;5.38;3.67;;;;;;;4.83;61.43;96108.41;4980385;28;20070;-66
2022/04/20 03:22:51;;;;;;;4.82;3.60;;;;;;;4.82;61.39;96112.22;4974295;28;20089;-67
2022/04/20 03:25:17;;;;;;;6.80;3.80;;;;;;;4.80;60.79;96111.78;4972949;28;20435;-66
2022/04/20 03:27:42;;;;;;;8.07;3.70;;;;;;;4.72;60.90;96121.66;4973797;28;20050;-65
2022/04/20 03:30:08;;;;;;;6.07;3.83;;;;;;;4.69;61.67;96113.41;4981119;28;20026;-66
2022/04/20 03:32:35;;;;;;;10.68;4.43;;;;;;;4.67;61.35;96116.47;4974959;28;20057;-68
2022/04/20 03:35:01;;;;;;;6.72;3.60;;;;;;;4.77;60.51;96115.19;4973187;28;20088;-67
2022/04/20 03:37:26;;;;;;;7.50;3.38;;;;;;;4.76;60.45;96111.69;4971798;28;20532;-66
2022/04/20 03:39:52;;;;;;;4.97;3.25;;;;;;;4.69;60.59;96111.47;4972210;28;20448;-66
2022/04/20 03:42:18;;;;;;;8.52;3.53;;;;;;;4.74;59.94;96115.88;4973035;28;20023;-66
2022/04/20 03:44:43;;;;;;;5.68;3.35;;;;;;;4.77;60.54;96113.28;4979442;28;20034;-65
2022/04/20 03:47:09;;;;;;;7.03;3.85;;;;;;;4.62;60.79;96107.78;4986684;28;20026;-65
2022/04/20 03:49:34;;;;;;;6.72;3.90;;;;;;;4.51;60.98;96102.81;4976150;28;20080;-66
2022/04/20 03:52:01;;;;;;;5.57;3.40;;;;;;;4.50;60.60;96097.72;4973037;28;20031;-67
2022/04/20 03:54:27;;;;;;;5.50;3.50;;;;;;;4.58;60.16;96089.47;4972597;28;20023;-69
2022/04/20 03:57:05;;;;;;;5.75;3.58;;;;;;;4.62;60.64;96089.56;4969816;28;20026;-67
2022/04/20 03:59:32;;;;;;;4.45;3.30;;;;;;;4.50;60.75;96093.09;4972824;28;20027;-67
2022/04/20 04:02:01;;;;;;;7.00;3.30;;;;;;;4.58;59.97;96091.41;4972333;28;20035;-67
2022/04/20 04:04:27;;;;;;;4.97;3.30;;;;;;;4.59;60.04;96099.19;4972116;28;20032;-67
2022/04/20 04:06:53;;;;;;;5.60;3.65;;;;;;;4.54;60.07;96095.94;4971668;28;20038;-68
2022/04/20 04:09:18;;;;;;;7.43;3.13;;;;;;;4.49;60.25;96099.66;4971085;28;20062;-66
2022/04/20 04:11:44;;;;;;;8.23;3.75;;;;;;;4.42;61.52;96101.38;4986533;28;20113;-66
2022/04/20 04:14:09;;;;;;;5.95;3.53;;;;;;;4.45;59.85;96098.75;4971262;28;20110;-66
2022/04/20 04:16:36;;;;;;;6.07;3.40;;;;;;;4.51;60.01;96107.44;4971283;28;20046;-66
2022/04/20 04:19:06;;;;;;;5.93;3.55;;;;;;;4.53;59.47;96110.59;4970863;28;20033;-66
2022/04/20 04:21:34;;;;;;;4.38;3.38;;;;;;;4.41;60.47;96108.69;4971316;28;20492;-65
2022/04/20 04:23:59;;;;;;;5.53;3.42;;;;;;;4.47;60.28;96109.28;4972502;28;20031;-67
2022/04/20 04:26:25;;;;;;;5.55;3.35;;;;;;;4.55;59.89;96109.13;4968893;28;20498;-65
2022/04/20 04:28:51;;;;;;;5.50;3.03;;;;;;;4.53;59.71;96116.03;4955313;28;20031;-66
2022/04/20 04:31:17;;;;;;;4.05;3.05;;;;;;;4.54;59.56;96102.13;4973532;28;20033;-67
2022/04/20 04:33:42;;;;;;;5.75;3.60;;;;;;;4.62;59.22;96113.97;4972184;28;20038;-65
2022/04/20 04:36:07;;;;;;;5.10;3.00;;;;;;;4.63;58.88;96106.63;4972069;28;20037;-68
2022/04/20 04:38:33;;;;;;;10.30;4.65;;;;;;;4.47;59.94;96106.56;4972626;28;20114;-64
2022/04/20 04:40:59;;;;;;;4.22;3.00;;;;;;;4.54;60.01;96117.63;4972586;28;20082;-65
2022/04/20 04:43:25;;;;;;;6.10;3.55;;;;;;;4.40;60.00;96117.97;4972463;28;20043;-66
2022/04/20 04:48:37;;;;;;;6.63;3.20;;;;;;;4.55;60.69;96127.31;4975441;28;20098;-66
2022/04/20 04:51:07;;;;;;;6.43;3.45;;;;;;;4.38;60.74;96117.53;4985085;28;20037;-65
2022/04/20 04:53:33;;;;;;;4.65;3.30;;;;;;;4.46;60.96;96132.88;4976545;28;20738;-65
2022/04/20 04:55:59;;;;;;;5.22;3.60;;;;;;;4.52;60.82;96136.94;4975545;28;20117;-67
2022/04/20 04:58:25;;;;;;;6.15;3.67;;;;;;;4.53;60.62;96140.44;4976174;28;20031;-65
2022/04/20 05:00:51;;;;;;;6.22;3.30;;;;;;;4.58;60.83;96143.72;4972249;28;20046;-66
2022/04/20 05:03:17;;;;;;;7.60;4.13;;;;;;;4.40;61.90;96136.94;4976011;28;20065;-66
2022/04/20 05:05:46;;;;;;;5.85;3.50;;;;;;;4.36;61.54;96149.63;4978678;28;20035;-67
2022/04/20 05:08:11;;;;;;;5.25;3.45;;;;;;;4.34;62.21;96149.13;4984970;28;20090;-66
2022/04/20 05:10:37;;;;;;;4.55;3.20;;;;;;;4.54;61.05;96144.75;4983397;28;20082;-66
2022/04/20 05:13:06;;;;;;;6.38;3.78;;;;;;;5.26;59.06;96142.19;4982643;28;20038;-66
2022/04/20 05:15:32;;;;;;;5.85;3.65;;;;;;;5.45;57.67;96143.47;4980725;28;20030;-66
2022/04/20 05:17:58;;;;;;;4.28;3.20;;;;;;;5.52;58.34;96139.00;4976435;28;20117;-65
2022/04/20 05:20:23;;;;;;;5.15;3.50;;;;;;;6.04;56.40;96139.19;4977589;28;20125;-66
2022/04/20 05:22:49;;;;;;;8.00;2.63;;;;;;;6.79;53.86;96131.97;4977558;28;20106;-66
2022/04/20 05:25:16;;;;;;;4.80;3.42;;;;;;;5.67;56.88;96131.22;4975467;28;20142;-68
2022/04/20 05:27:42;;;;;;;5.53;3.10;;;;;;;5.71;57.72;96121.25;4974885;28;20101;-66
2022/04/20 05:30:11;;;;;;;5.72;3.40;;;;;;;5.66;57.78;96124.22;4975863;28;20031;-65
2022/04/20 05:32:36;;;;;;;4.97;3.15;;;;;;;6.27;56.80;96118.41;4974207;28;20104;-65
2022/04/20 05:35:02;;;;;;;6.10;3.15;;;;;;;6.97;53.80;96118.75;4975382;28;20039;-65
2022/04/20 05:42:57;;;;;;;4.30;3.03;;;;;;;6.21;56.30;96116.28;4975583;28;20038;-65
2022/04/20 05:45:23;;;;;;;7.30;4.15;;;;;;;6.21;57.21;96124.44;4974726;28;20030;-65
2022/04/20 05:47:48;;;;;;;6.47;3.53;;;;;;;6.45;55.56;96124.25;4972603;28;20046;-66
2022/04/20 05:50:14;;;;;;;5.95;3.10;;;;;;;6.38;56.80;96123.31;4973627;28;20081;-66
2022/04/20 05:52:40;;;;;;;4.10;2.85;;;;;;;6.42;56.20;96118.72;4974478;28;20034;-66
2022/04/20 05:55:06;;;;;;;5.47;3.92;;;;;;;6.13;56.72;96123.50;4973325;28;20114;-65
2022/04/20 05:57:33;;;;;;;4.38;3.20;;;;;;;6.03;56.96;96134.88;4972935;28;20083;-66
2022/04/20 05:59:59;;;;;;;5.50;3.08;;;;;;;6.23;57.20;96139.28;4974718;28;20033;-65
2022/04/20 06:02:24;;;;;;;5.93;3.50;;;;;;;6.25;57.18;96133.50;4981891;28;20034;-66
2022/04/20 06:04:50;;;;;;;5.43;3.40;;;;;;;6.45;56.76;96135.13;4991475;28;20037;-66
2022/04/20 06:07:15;;;;;;;6.22;3.58;;;;;;;6.90;56.26;96146.63;5001589;28;20561;-65
2022/04/20 06:09:41;;;;;;;6.90;4.50;;;;;;;6.42;56.92;96146.72;5001160;28;20034;-66
2022/04/20 06:12:07;;;;;;;6.40;3.35;;;;;;;6.05;58.15;96135.31;4992318;28;20073;-65
2022/04/20 06:14:33;;;;;;;6.53;3.80;;;;;;;7.10;55.47;96135.75;4977266;28;20027;-66
2022/04/20 06:16:58;;;;;;;6.95;4.53;;;;;;;7.89;53.22;96135.31;4975744;28;20034;-66
2022/04/20 06:19:24;;;;;;;9.30;3.35;;;;;;;9.41;50.02;96133.66;4978712;28;20051;-65
2022/04/20 06:21:49;;;;;;;6.78;3.83;;;;;;;9.38;48.43;96129.72;4976984;28;20034;-66
2022/04/20 06:24:15;;;;;;;4.63;3.53;;;;;;;9.62;48.88;96137.81;4973162;28;20667;-68
2022/04/20 06:26:40;;;;;;;7.85;4.55;;;;;;;8.65;51.00;96140.06;4973331;28;20076;-68
2022/04/20 06:29:05;;;;;;;9.15;3.92;;;;;;;9.10;50.77;96129.38;4972973;28;20027;-65
2022/04/20 06:31:31;;;;;;;7.32;3.35;;;;;;;8.66;50.40;96124.47;4973157;28;20038;-67
2022/04/20 06:33:59;;;;;;;9.57;5.13;;;;;;;8.38;50.95;96131.84;4974407;28;20033;-67
2022/04/20 06:36:25;;;;;;;7.85;3.28;;;;;;;9.90;48.75;96132.63;4973485;28;20027;-68
2022/04/20 06:38:51;;;;;;;5.57;3.20;;;;;;;9.29;49.33;96136.63;4972393;28;20054;-69
2022/04/20 06:41:17;;;;;;;44.50;20.45;;;;;;;9.67;49.42;96140.19;4972086;28;20035;-67
2022/04/20 06:43:43;;;;;;;7.85;4.72;;;;;;;10.22;48.04;96134.06;4969265;28;20042;-67
2022/04/20 06:46:08;;;;;;;7.07;4.45;;;;;;;9.82;48.35;96125.50;4972366;28;20503;-65
2022/04/20 06:48:34;;;;;;;7.20;4.30;;;;;;;9.55;49.27;96122.09;4973563;28;20121;-68
2022/04/20 06:51:01;;;;;;;6.68;3.72;;;;;;;9.92;47.06;96130.31;4974035;28;20062;-68
2022/04/20 06:58:54;;;;;;;7.57;4.28;;;;;;;9.03;51.32;96121.88;4981402;28;20065;-67
2022/04/20 07:01:19;;;;;;;5.40;4.45;;;;;;;8.49;52.76;96123.84;4976490;28;20039;-66
2022/04/20 07:03:44;;;;;;;6.38;3.85;;;;;;;9.06;50.84;96123.09;4970448;28;20066;-66
2022/04/20 07:06:10;;;;;;;6.15;4.20;;;;;;;10.08;49.93;96121.84;4973969;28;20033;-66
2022/04/20 07:08:35;;;;;;;7.28;3.35;;;;;;;10.66;47.59;96127.78;4972149;28;20038;-67
2022/04/20 07:11:01;;;;;;;6.47;3.00;;;;;;;12.55;42.85;96124.09;4973156;28;20550;-67
2022/04/20 07:13:27;;;;;;;4.82;2.90;;;;;;;12.95;42.36;96115.81;4972040;28;20035;-68
2022/04/20 07:15:52;;;;;;;5.28;3.00;;;;;;;9.36;50.23;96112.09;4972451;28;20062;-68
2022/04/20 07:18:18;;;;;;;5.40;3.40;;;;;;;9.75;49.76;96115.28;4975289;28;20027;-69
2022/04/20 07:20:44;;;;;;;7.13;3.85;;;;;;;11.51;45.89;96114.91;4966245;28;20526;-67
2022/04/20 07:23:10;;;;;;;4.97;3.20;;;;;;;12.08;44.36;96115.03;4958022;28;20082;-69
2022/04/20 07:25:36;;;;;;;11.20;6.45;;;;;;;12.04;45.46;96111.53;4956925;28;20431;-66
2022/04/20 07:28:03;;;;;;;7.43;4.35;;;;;;;11.67;45.03;96118.88;4962747;28;20039;-65
2022/04/20 07:30:29;;;;;;;5.82;3.40;;;;;;;10.74;47.32;96114.94;4966281;28;20130;-69
2022/04/20 07:32:54;;;;;;;4.82;3.20;;;;;;;13.16;42.48;96109.44;4963331;28;20134;-68
2022/04/20 07:35:20;;;;;;;7.05;3.80;;;;;;;10.56;47.77;96112.88;4955243;28;20049;-66
2022/04/20 07:37:45;;;;;;;4.53;3.08;;;;;;;12.13;45.36;96111.91;4961615;28;20058;-67
2022/04/20 07:40:12;;;;;;;7.97;4.20;;;;;;;11.98;45.41;96116.63;4954551;28;20439;-66
2022/04/20 07:42:38;;;;;;;7.03;5.20;;;;;;;10.78;46.95;96121.22;4960966;28;20134;-67
2022/04/20 07:45:04;;;;;;;9.10;3.53;;;;;;;13.80;41.51;96102.13;4958146;28;20129;-66
2022/04/20 07:47:30;;;;;;;5.25;3.47;;;;;;;11.88;43.88;96102.84;4960002;28;20051;-68
2022/04/20 07:52:41;;;;;;;5.95;3.17;;;;;;;12.88;43.00;96105.59;4966721;28;20051;-68
2022/04/20 07:55:14;;;;;;;5.97;3.30;;;;;;;11.91;44.85;96105.63;4955329;28;20050;-66
2022/04/20 07:57:42;;;;;;;9.95;4.25;;;;;;;11.12;46.79;96101.84;4968685;28;20133;-66
2022/04/20 08:00:09;;;;;;;4.32;3.25;;;;;;;12.50;43.48;96099.78;4960391;28;20040;-66
2022/04/20 08:02:35;;;;;;;7.05;3.78;;;;;;;10.24;49.67;96107.88;4967577;28;20054;-65
2022/04/20 08:05:00;;;;;;;7.30;3.65;;;;;;;12.32;44.24;96105.28;4960547;28;20097;-67
2022/04/20 08:07:26;;;;;;;5.65;3.63;;;;;;;11.65;45.41;96096.53;4955214;28;20058;-68
2022/04/20 08:09:52;;;;;;;9.18;3.80;;;;;;;11.98;44.26;96100.16;4960622;28;20050;-67
2022/04/20 08:12:17;;;;;;;7.30;3.90;;;;;;;11.52;46.12;96097.28;4955143;28;20058;-68
2022/04/20 08:14:43;;;;;;;6.28;3.42;;;;;;;11.76;46.44;96090.31;4961616;28;20047;-67
2022/04/20 08:17:09;;;;;;;5.95;3.78;;;;;;;12.02;44.67;96098.19;4955129;28;20663;-67
2022/04/20 08:19:34;;;;;;;6.45;4.30;;;;;;;11.42;46.88;96099.59;4960639;28;20100;-67
2022/04/20 08:22:00;;;;;;;5.72;3.33;;;;;;;13.26;43.08;96089.38;4960798;28;20074;-67
2022/04/20 08:24:25;;;;;;;7.47;3.65;;;;;;;13.15;42.93;96089.41;4955916;28;20134;-67
2022/04/20 08:26:51;;;;;;;5.22;3.80;;;;;;;11.72;45.97;96093.03;4963236;28;20603;-67
2022/04/20 08:29:16;;;;;;;4.70;3.28;;;;;;;13.72;40.96;96093.91;4959335;28;20138;-67
2022/04/20 08:31:41;;;;;;;4.97;3.30;;;;;;;13.00;41.61;96093.41;4964791;28;20046;-66
2022/04/20 08:34:07;;;;;;;6.38;4.57;;;;;;;11.76;44.91;96098.53;4959883;28;20096;-68
2022/04/20 08:36:33;;;;;;;4.75;3.40;;;;;;;11.79;45.23;96097.72;4964267;28;20043;-68
2022/04/20 08:39:00;;;;;;;5.03;3.40;;;;;;;11.39;44.55;96096.84;4965231;28;20436;-67
2022/04/20 08:41:26;;;;;;;5.80;3.30;;;;;;;12.23;43.30;96091.16;4959366;28;20049;-67
2022/04/20 08:43:52;;;;;;;5.68;3.15;;;;;;;12.54;41.33;96084.06;4964098;28;20416;-68
2022/04/20 08:46:18;;;;;;;6.85;3.17;;;;;;;11.84;43.74;96083.63;4957859;28;20043;-67
2022/04/20 08:48:43;;;;;;;6.80;3.25;;;;;;;11.91;43.21;96074.66;4964697;28;20043;-67
2022/04/20 08:51:09;;;;;;;5.95;3.50;;;;;;;11.60;44.32;96080.47;4959401;28;20555;-65
2022/04/20 08:53:35;;;;;;;6.78;3.75;;;;;;;12.16;42.55;96075.47;4964080;28;20061;-68
2022/04/20 08:58:50;;;;;;;5.00;3.15;;;;;;;12.25;41.82;96083.31;4963659;28;20423;-67
2022/04/20 09:01:17;;;;;;;6.47;3.60;;;;;;;12.57;42.87;96083.28;4959444;28;20050;-67
2022/04/20 09:03:46;;;;;;;5.70;3.28;;;;;;;13.06;40.44;96078.06;4964376;28;20046;-65
2022/04/20 09:06:15;;;;;;;7.25;3.72;;;;;;;12.49;41.05;96078.19;4959532;28;20039;-66
2022/04/20 09:08:42;;;;;;;4.35;3.08;;;;;;;12.49;43.08;96081.72;4963176;28;20051;-66
2022/04/20 09:11:08;;;;;;;6.75;3.58;;;;;;;12.15;44.25;96084.84;4960097;28;20420;-66
2022/04/20 09:13:41;;;;;;;5.03;3.55;;;;;;;12.29;41.78;96070.34;4964202;28;20043;-67
2022/04/20 09:16:11;;;;;;;7.72;3.95;;;;;;;12.76;41.04;96071.06;4957118;28;20043;-66
2022/04/20 09:18:39;;;;;;;7.60;3.28;;;;;;;12.95;41.72;96078.09;4963878;28;20078;-67
2022/04/20 09:21:16;;;;;;;6.32;3.35;;;;;;;12.43;43.04;96080.56;4958454;28;20081;-64
2022/04/20 09:23:42;;;;;;;10.68;3.38;;;;;;;12.47;41.55;96059.34;4964050;28;20205;-65
2022/04/20 09:26:19;;;;;;;6.00;3.35;;;;;;;12.31;43.29;96072.72;4958558;28;20129;-66
2022/04/20 09:29:06;;;;;;;7.75;3.47;;;;;;;12.46;40.71;96081.72;4963894;28;20042;-68
2022/04/20 09:31:46;;;;;;;4.85;3.00;;;;;;;12.04;43.69;96082.09;4965045;28;20108;-67
2022/04/20 09:34:53;;;;;;;;;;;;;;;13.83;39.44;96071.81;4957424;28;20147;-66
2022/04/20 09:37:20;;;;;;;7.05;4.80;;;;;;;12.35;41.59;96082.53;4957279;28;20005;-68
2022/04/20 09:39:46;;;;;;;4.88;3.65;;;;;;;13.27;40.06;96079.97;4962752;28;20094;-68
2022/04/20 09:42:12;;;;;;;7.28;3.30;;;;;;;13.01;39.62;96079.25;4958508;28;20046;-67
2022/04/20 09:44:52;;;;;;;4.45;3.45;;;;;;;12.69;41.10;96075.81;4963649;28;20574;-66
2022/04/20 09:50:05;;;;;;;7.07;3.97;;;;;;;13.61;40.08;96070.38;4958572;28;20408;-67
2022/04/20 09:52:44;;;;;;;5.65;3.22;;;;;;;15.00;36.59;96076.75;4964248;28;20049;-65
2022/04/20 09:55:26;;;;;;;6.85;3.25;;;;;;;13.46;39.18;96070.44;4959357;28;20049;-66
2022/04/20 09:57:53;;;;;;;5.90;3.70;;;;;;;12.32;40.96;96072.31;4963752;28;20519;-68
2022/04/20 10:00:20;;;;;;;4.63;2.90;;;;;;;13.44;40.56;96083.06;4958511;28;20119;-66
2022/04/20 10:02:51;;;;;;;14.93;3.30;;;;;;;14.16;38.66;96072.38;4962791;28;20047;-68
2022/04/20 10:05:17;;;;;;;6.22;3.08;;;;;;;14.54;37.37;96073.22;4958464;28;20034;-67
2022/04/20 10:07:43;;;;;;;4.47;3.08;;;;;;;13.30;37.90;96050.88;4962939;28;20043;-68
2022/04/20 10:10:09;;;;;;;5.05;3.15;;;;;;;13.91;36.66;96064.28;4958267;28;20042;-67
2022/04/20 10:12:41;;;;;;;5.80;3.08;;;;;;;14.05;36.29;96066.19;4965719;28;20085;-66
2022/04/20 10:17:56;;;;;;;4.32;2.90;;;;;;;13.78;38.80;96064.00;4965233;28;20108;-67
2022/04/20 10:20:25;;;;;;;4.38;2.85;;;;;;;14.69;35.62;96071.16;4959874;28;20141;-66
2022/04/20 10:22:51;;;;;;;5.45;3.40;;;;;;;13.05;38.67;96070.22;4964921;28;20047;-66
2022/04/20 10:25:16;;;;;;;5.55;2.97;;;;;;;13.02;38.44;96063.56;4959506;28;20038;-66
2022/04/20 10:28:03;;;;;;;3.97;2.53;;;;;;;13.60;38.08;96066.84;4964050;28;20039;-67
2022/04/20 10:30:44;;;;;;;4.80;2.95;;;;;;;13.82;37.82;96053.72;4961184;28;20038;-67
2022/04/20 10:33:16;;;;;;;18.85;7.15;;;;;;;15.52;36.73;96052.84;4958928;28;20365;-67
2022/04/20 10:36:01;;;;;;;5.78;3.35;;;;;;;14.15;36.87;96062.53;4963029;28;20039;-67
2022/04/20 10:38:30;;;;;;;5.57;2.85;;;;;;;13.65;38.88;96049.91;4961513;28;20053;-67
2022/04/20 10:41:09;;;;;;;4.47;3.30;;;;;;;12.73;38.37;96058.13;4968477;28;20055;-67
2022/04/20 10:43:44;;;;;;;4.88;3.10;;;;;;;13.92;37.72;96049.34;4965998;28;20070;-67
2022/04/20 10:46:14;;;;;;;5.63;3.20;;;;;;;13.87;40.14;96047.81;4965270;28;20050;-65
2022/04/20 10:48:55;;;;;;;;;;;;;;;13.91;38.77;96050.53;4964832;28;20039;-67
2022/04/20 10:51:32;;;;;;;5.88;3.20;;;;;;;13.68;38.19;96045.56;4957726;28;19956;-67
2022/04/20 10:54:27;;;;;;;7.25;3.28;;;;;;;12.84;38.74;96038.88;4964679;28;20038;-69
2022/04/20 10:56:58;;;;;;;8.35;3.25;;;;;;;13.27;39.68;96043.41;4962447;28;20050;-67
2022/04/20 10:59:24;;;;;;;5.43;3.35;;;;;;;14.14;38.55;96039.72;4957093;28;20411;-67
2022/04/20 11:01:58;;;;;;;6.20;2.75;;;;;;;15.07;36.64;96043.56;4962300;28;20050;-67
2022/04/20 11:04:43;;;;;;;6.05;2.95;;;;;;;14.79;34.93;96036.41;4956704;28;20047;-67
2022/04/20 11:07:08;;;;;;;7.65;3.20;;;;;;;14.02;37.30;96037.47;4966121;28;20062;-66
2022/04/20 11:09:45;;;;;;;9.50;3.65;;;;;;;14.31;36.12;96028.97;4974303;28;20066;-66
2022/04/20 11:21:03;;;;;;;5.65;3.05;;;;;;;14.57;36.47;96024.78;4962210;28;20049;-66
2022/04/20 11:23:47;;;;;;;7.80;3.38;;;;;;;13.71;36.96;96022.75;4975213;28;20512;-66
2022/04/20 11:26:14;;;;;;;8.85;3.45;;;;;;;14.47;36.92;96034.72;4954654;28;20504;-66
2022/04/20 11:28:41;;;;;;;7.43;3.05;;;;;;;14.41;36.37;96027.31;4963353;28;20363;-66
2022/04/20 11:31:06;;;;;;;6.60;3.00;;;;;;;13.75;37.30;96020.75;4958761;28;20105;-65
2022/04/20 11:33:33;;;;;;;6.57;3.22;;;;;;;14.45;37.88;96022.53;4962281;28;20046;-64
2022/04/20 11:35:59;;;;;;;4.32;3.28;;;;;;;13.68;38.50;96015.31;4962726;28;20038;-67
2022/04/20 11:38:37;;;;;;;5.15;3.33;;;;;;;13.43;38.37;96023.72;4956449;28;20086;-66
2022/04/20 11:41:05;;;;;;;5.75;3.80;;;;;;;13.17;37.60;96018.31;4958055;28;20122;-64
2022/04/20 11:43:31;;;;;;;11.70;3.55;;;;;;;13.39;37.72;96018.22;4958839;28;20101;-66
2022/04/20 11:45:56;;;;;;;6.38;3.38;;;;;;;13.83;37.43;96015.97;4961857;28;20034;-66
2022/04/20 11:48:22;;;;;;;9.60;3.47;;;;;;;13.71;37.44;96006.25;4958132;28;20409;-68
2022/04/20 11:50:58;;;;;;;9.98;3.53;;;;;;;13.62;37.13;96017.69;4963057;28;20392;-66
2022/04/20 11:53:38;;;;;;;7.85;3.03;;;;;;;14.04;36.84;96012.28;4956773;28;20047;-65
2022/04/20 11:56:07;;;;;;;5.80;3.70;;;;;;;13.84;36.01;96010.06;4970751;28;20066;-65
2022/04/20 11:58:33;;;;;;;6.90;3.85;;;;;;;13.81;38.13;96013.66;4961074;28;20043;-67
2022/04/20 12:01:04;;;;;;;5.38;3.03;;;;;;;14.40;36.59;96007.22;4959157;28;20045;-67
2022/04/20 12:03:36;;;;;;;4.03;2.90;;;;;;;14.43;37.05;96016.66;4958730;28;20061;-67
2022/04/20 12:06:05;;;;;;;5.85;3.03;;;;;;;15.14;35.73;96003.28;4959999;28;20508;-67
2022/04/20 12:08:32;;;;;;;6.38;2.80;;;;;;;14.15;35.10;96000.00;4970162;28;20047;-67
2022/04/20 12:11:01;;;;;;;4.18;3.00;;;;;;;13.92;36.43;95997.81;4962951;28;20046;-68
2022/04/20 12:13:29;;;;;;;5.53;3.55;;;;;;;14.19;37.11;96002.72;4957375;28;20184;-68